Time;durP1;ratioP1;P1;durP2;ratioP2;P2;SDS_P1;SDS_P2;PMS_P1;PMS_P2;Temp;Humidity;BMP_temperature;BMP_pressure;BME280_temperature;BME280_humidity;BME280_pressure;Samples;Min_cycle;Max_cycle;Signal;HPM_P1;HPM_P2
2022/04/06 00:01:40;;;;;;;;;;;;;;;;;;4843351;29;19963;-76
2022/04/06 00:04:06;;;;;;;;;;;;;;;;;;4843453;29;19908;-69
2022/04/06 00:06:32;;;;;;;;;;;;;;;;;;4843369;29;19908;-70
2022/04/06 00:08:58;;;;;;;;;;;;;;;;;;4843275;29;19965;-69
2022/04/06 00:11:24;;;;;;;;;;;;;;;;;;4843253;29;19912;-69
2022/04/06 00:13:51;;;;;;;;;;;;;;;;;;4843206;29;19961;-74
2022/04/06 00:16:17;;;;;;;;;;;;;;;;;;4843212;29;20272;-71
2022/04/06 00:18:43;;;;;;;;;;;;;;;;;;4843145;29;19908;-69
2022/04/06 00:21:09;;;;;;;;;;;;;;;;;;4843420;29;19946;-69
2022/04/06 00:23:35;;;;;;;;;;;;;;;;;;4843152;29;19912;-69
2022/04/06 00:26:00;;;;;;;;;;;231.10;2150.40;;;;;;4841903;29;19969;-75
2022/04/06 00:28:26;;;;;;;;;;;231.00;2176.00;;;;;;4843093;29;20426;-75
2022/04/06 00:30:52;;;;;;;;;;;231.00;2201.60;;;;;;4843264;29;19909;-69
2022/04/06 00:33:18;;;;;;;;;;;231.00;2176.00;;;;;;4843366;29;19908;-68
2022/04/06 00:35:44;;;;;;;;;;;231.00;2150.40;;;;;;4842920;29;20358;-69
2022/04/06 00:38:10;;;;;;;;;;;231.00;2176.00;;;;;;4843490;29;19924;-69
2022/04/06 00:40:37;;;;;;;;;;;231.00;2150.40;;;;;;4846204;29;19916;-75
2022/04/06 00:43:06;;;;;;;;;;;230.90;2201.60;;;;;;4846615;29;19912;-68
2022/04/06 00:45:32;;;;;;;;;;;230.90;2176.00;;;;;;4846427;29;19909;-69
2022/04/06 00:47:58;;;;;;;;;;;230.90;2201.60;;;;;;4846494;29;20385;-69
2022/04/06 00:50:24;;;;;;;;;;;230.80;2201.60;;;;;;4846307;29;19920;-69
2022/04/06 00:52:55;;;;;;;;;;;230.70;2176.00;;;;;;4829855;29;19924;-69
2022/04/06 00:55:21;;;;;;;;;;;230.70;2201.60;;;;;;4846449;29;20003;-70
2022/04/06 00:57:48;;;;;;;;;;;230.70;2201.60;;;;;;4846436;29;19912;-69
2022/04/06 01:00:15;;;;;;;;;;;230.80;2201.60;;;;;;4846192;29;20397;-69
2022/04/06 01:02:40;;;;;;;;;;;230.80;2201.60;;;;;;4846221;29;20358;-69
2022/04/06 01:05:06;;;;;;;;;;;230.70;2201.60;;;;;;4846439;29;19909;-69
2022/04/06 01:07:32;;;;;;;;;;;231.00;2201.60;;;;;;4846169;29;20381;-68
2022/04/06 01:09:58;;;;;;;;;;;230.70;2227.20;;;;;;4846160;29;20362;-74
2022/04/06 01:12:24;;;;;;;;;;;230.70;2227.20;;;;;;4846051;29;19908;-68
2022/04/06 01:14:50;;;;;;;;;;;230.70;2252.80;;;;;;4846048;29;19952;-78
2022/04/06 01:17:15;;;;;;;;;;;230.60;2252.80;;;;;;4846060;29;20330;-77
2022/04/06 01:19:45;;;;;;;;;;;230.50;2252.80;;;;;;4845900;29;19917;-70
2022/04/06 01:22:14;;;;;;;;;;;230.60;2227.20;;;;;;4846127;29;19919;-70
2022/04/06 01:24:40;;;;;;;;;;;230.50;2252.80;;;;;;4845848;29;19958;-70
2022/04/06 01:27:08;;;;;;;48.78;29.23;;;230.50;2252.80;;;;;;4845385;29;20366;-68
2022/04/06 01:29:34;;;;;;;50.78;31.05;;;230.40;2252.80;;;;;;4845297;29;20067;-69
2022/04/06 01:32:11;;;;;;;54.25;31.70;;;;;;;;;;4845270;29;20072;-75
2022/04/06 01:34:37;;;;;;;50.55;32.17;;;;;;;;;;4845390;29;20085;-69
2022/04/06 01:37:05;;;;;;;49.30;32.38;;;;;;;;;;4845223;29;20038;-68
2022/04/06 01:39:34;;;;;;;46.88;31.90;;;;;;;;;;4845141;29;20038;-69
2022/04/06 01:42:01;;;;;;;55.17;31.70;;;;;;;;;;4845132;29;20038;-70
2022/04/06 01:44:28;;;;;;;52.28;31.77;;;;;;;;;;4845032;29;20029;-68
2022/04/06 01:46:55;;;;;;;56.88;31.08;;;;;;;;;;4845228;29;20424;-68
2022/04/06 01:52:12;;;;;;;48.85;31.23;;;;;;;;;;4844676;29;20049;-76
2022/04/06 01:54:38;;;;;;;69.28;37.00;;;;;;;;;;4845274;29;20480;-68
2022/04/06 01:57:05;;;;;;;63.05;35.75;;;;;;;;;;4844876;29;20066;-69
2022/04/06 01:59:31;;;;;;;70.78;37.97;;;;;;;;;;4844819;29;20514;-72
2022/04/06 02:01:57;;;;;;;59.65;36.33;;;;;;;;;;4844848;29;20026;-69
2022/04/06 02:04:23;;;;;;;;;;;;;;;;;;4845135;29;20061;-69
2022/04/06 02:06:49;;;;;;;68.05;38.53;;;;;;;;;;4844695;29;19915;-75
2022/04/06 02:09:16;;;;;;;69.03;44.75;;;;;;;;;;4843873;29;20405;-75
2022/04/06 02:11:42;;;;;;;71.22;44.60;;;;;;;;;;4844123;29;20391;-68
2022/04/06 02:14:09;;;;;;;76.10;45.63;;;;;;;;;;4843744;29;20391;-74
2022/04/06 02:16:36;;;;;;;90.68;49.20;;;;;;;;;;4843727;29;20422;-74
2022/04/06 02:19:02;;;;;;;90.63;48.30;;;;;;;;;;4843675;29;20398;-68
2022/04/06 02:21:28;;;;;;;84.30;48.30;;;;;;;;;;4843546;29;20402;-70
2022/04/06 02:23:54;;;;;;;88.57;47.83;;;;;;;;;;4844118;29;20477;-68
2022/04/06 02:26:20;;;;;;;74.50;44.38;;;;;;;;;;4843622;29;20560;-68
2022/04/06 02:28:47;;;;;;;47.85;33.58;;;;;;;;;;4843083;29;20906;-68
2022/04/06 02:31:13;;;;;;;42.17;29.95;;;;;;;;;;4843351;29;20391;-69
2022/04/06 02:33:39;;;;;;;39.85;28.40;;;;;;;;;;4843237;29;20891;-68
2022/04/06 02:36:05;;;;;;;40.10;29.17;;;;;;;;;;4843344;29;20398;-69
2022/04/06 02:38:31;;;;;;;40.78;28.13;;;;;;;;;;4843326;29;20394;-68
2022/04/06 02:40:58;;;;;;;40.60;28.60;;;;;;;;;;4843260;29;20422;-74
2022/04/06 02:43:25;;;;;;;43.80;30.33;;;;;;;;;;4842920;29;20383;-69
2022/04/06 02:45:51;;;;;;;40.60;27.88;;;;;;;;;;4843072;29;20378;-69
2022/04/06 02:48:17;;;;;;;36.47;27.98;;;;;;;;;;4843092;29;20856;-68
2022/04/06 02:50:43;;;;;;;38.30;26.50;;;;;;;;;;4842707;29;20912;-68
2022/04/06 02:53:09;;;;;;;35.53;26.10;;;;;;;;;;4843239;29;20401;-75
2022/04/06 02:55:36;;;;;;;35.88;25.27;;;;;;;;;;4843133;29;20393;-69
2022/04/06 02:58:02;;;;;;;34.80;25.67;;;;;;;;;;4842733;29;20382;-69
2022/04/06 03:00:32;;;;;;;34.22;26.05;;;;;;;;;;4842750;29;20899;-69
2022/04/06 03:02:58;;;;;;;36.70;26.97;;;;;;;;;;4841854;29;20470;-74
2022/04/06 03:05:25;;;;;;;37.72;28.40;;;;;;;;;;4842691;29;20767;-68
2022/04/06 03:07:51;;;;;;;45.85;30.65;;;;;;;;;;4842926;29;20378;-73
2022/04/06 03:10:17;;;;;;;44.05;29.77;;;;;;;;;;4843011;29;20390;-75
2022/04/06 03:12:44;;;;;;;45.47;30.55;;;;;;;;;;4842495;29;20439;-69
2022/04/06 03:15:11;;;;;;;44.83;30.05;;;;;;;;;;4842810;29;20422;-68
2022/04/06 03:17:37;;;;;;;43.58;30.40;;;;;;;;;;4842550;29;20423;-69
2022/04/06 03:20:06;;;;;;;44.05;30.05;;;;;;;;;;4842408;29;20422;-68
2022/04/06 03:22:33;;;;;;;42.83;30.25;;;;;;;;;;4842155;29;20383;-68
2022/04/06 03:24:59;;;;;;;38.95;28.95;;;;;;;;;;4843193;29;20467;-69
2022/04/06 03:27:25;;;;;;;37.45;28.08;;;;;;;;;;4842143;29;20383;-68
2022/04/06 03:29:51;;;;;;;36.30;27.17;;;;;;;;;;4842430;29;20406;-69
2022/04/06 03:32:17;;;;;;;34.83;26.43;;;;;;;;;;4842625;29;20412;-68
2022/04/06 03:34:44;;;;;;;47.88;29.10;;;;;;;;;;4842647;29;20397;-69
2022/04/06 03:37:10;;;;;;;39.05;27.38;;;;;;;;;;4842140;29;20442;-68
2022/04/06 03:39:36;;;;;;;38.40;27.95;;;205.40;2227.20;;;;;;4842235;29;20513;-75
2022/04/06 03:42:02;;;;;;;38.90;28.57;;;205.30;2252.80;;;;;;4842369;29;20398;-69
2022/04/06 03:44:28;;;;;;;38.63;28.52;;;205.20;2252.80;;;;;;4841964;29;20397;-68
2022/04/06 03:46:56;;;;;;;36.10;28.10;;;205.30;2252.80;;;;;;4842508;29;20403;-68
2022/04/06 03:49:22;;;;;;;44.78;29.10;;;205.30;2252.80;;;;;;4842207;29;20406;-68
2022/04/06 03:51:48;;;;;;;40.40;29.05;;;205.30;2252.80;;;;;;4842096;29;20391;-69
2022/04/06 03:54:14;;;;;;;50.92;31.27;;;205.20;2252.80;;;;;;4842136;29;20383;-68
2022/04/06 03:56:40;;;;;;;49.37;31.17;;;205.10;2252.80;;;;;;4842014;29;20413;-68
2022/04/06 03:59:07;;;;;;;44.72;31.20;;;;;;;;;;4841787;29;20391;-68
2022/04/06 04:01:35;;;;;;;49.08;31.27;;;;;;;;;;4839106;29;20398;-68
2022/04/06 04:04:04;;;;;;;47.28;31.52;;;;;;;;;;4842177;29;20435;-69
2022/04/06 04:06:31;;;;;;;45.47;31.13;;;;;;;;;;4841903;29;20450;-69
2022/04/06 04:08:57;;;;;;;45.57;32.13;;;;;;;;;;4841798;29;20390;-72
2022/04/06 04:11:23;;;;;;;46.55;31.15;;;;;;;;;;4841702;29;20395;-69
2022/04/06 04:13:49;;;;;;;46.63;31.17;;;;;;;;;;4842927;29;20409;-70
2022/04/06 04:16:16;;;;;;;45.75;31.67;;;;;;;;;;4848199;29;20390;-69
2022/04/06 04:18:42;;;;;;;46.50;32.70;;;;;;;;;;4842048;29;20397;-69
2022/04/06 04:23:53;;;;;;;49.80;35.47;;;;;;;;;;4839544;29;20379;-69
2022/04/06 04:26:19;;;;;;;52.33;37.50;;;;;;;;;;4838884;29;20418;-69
2022/04/06 04:28:45;;;;;;;67.97;46.87;;;;;;;;;;4838714;29;20418;-74
2022/04/06 04:31:11;;;;;;;101.67;77.60;;;;;;;;;;4837761;29;20384;-70
2022/04/06 04:33:38;;;;;;;114.53;89.45;;;;;;;;;;4839210;29;20411;-69
2022/04/06 04:36:04;;;;;;;94.63;67.63;;;;;;;;;;4839259;29;20451;-69
2022/04/06 04:38:30;;;;;;;69.80;47.83;;;;;;;;;;4838854;29;20462;-69
2022/04/06 04:40:57;;;;;;;51.75;38.53;;;;;;;;;;4837156;29;20422;-68
2022/04/06 04:43:23;;;;;;;52.90;38.22;;;;;;;;;;4837504;29;20388;-75
2022/04/06 04:45:49;;;;;;;45.65;36.30;;;;;;;;;;4839701;29;20444;-75
2022/04/06 04:48:15;;;;;;;49.35;36.20;;;;;;;;;;4840159;29;20409;-75
2022/04/06 04:50:42;;;;;;;52.20;38.67;;;;;;;;;;4836948;29;20490;-70
2022/04/06 04:53:08;;;;;;;54.92;37.72;;;;;;;;;;4839148;29;20384;-77
2022/04/06 04:55:34;;;;;;;51.15;37.22;;;;;;;;;;4836939;29;20392;-74
2022/04/06 04:58:00;;;;;;;56.10;37.60;;;;;;;;;;4840358;29;20456;-74
2022/04/06 05:00:27;;;;;;;54.15;38.20;;;;;;;;;;4841214;29;20424;-75
2022/04/06 05:02:53;;;;;;;53.45;39.67;;;;;;;;;;4839046;29;20919;-74
2022/04/06 05:05:19;;;;;;;49.80;39.17;;;;;;;;;;4839066;29;20520;-68
2022/04/06 05:07:45;;;;;;;53.25;40.25;;;;;;;;;;4840432;29;20890;-76
2022/04/06 05:10:11;;;;;;;54.92;40.25;;;;;;;;;;4837689;29;20400;-75
2022/04/06 05:12:38;;;;;;;57.90;41.72;;;;;;;;;;4839769;29;20469;-75
2022/04/06 05:15:05;;;;;;;54.60;39.50;;;;;;;;;;4845745;29;20749;-69
2022/04/06 05:17:31;;;;;;;52.13;40.40;;;;;;;;;;4847192;29;20422;-69
2022/04/06 05:19:57;;;;;;;54.58;40.17;;;;;;;;;;4847084;29;20418;-68
2022/04/06 05:22:23;;;;;;;53.00;40.00;;;231.20;2124.80;;;;;;4845872;29;20405;-69
2022/04/06 05:24:49;;;;;;;54.85;39.58;;;231.10;2073.60;;;;;;4847806;29;20856;-71
2022/04/06 05:27:15;;;;;;;52.10;39.07;;;231.10;2073.60;;;;;;4842154;29;20879;-69
2022/04/06 05:29:42;;;;;;;51.58;38.75;;;231.20;2073.60;;;;;;4844307;29;20758;-74
2022/04/06 05:32:08;;;;;;;49.35;38.75;;;231.30;2073.60;;;;;;4844247;29;20394;-74
2022/04/06 05:34:35;;;;;;;49.90;39.40;;;231.30;2073.60;;;;;;4844575;29;20394;-68
2022/04/06 05:37:02;;;;;;;47.65;38.55;;;256.00;2048.00;;;;;;4839890;29;20389;-68
2022/04/06 05:39:28;;;;;;;52.13;41.27;;;256.30;2048.00;;;;;;4825774;29;20479;-68
2022/04/06 05:41:54;;;;;;;53.13;42.35;;;;;;;;;;4826058;29;20446;-68
2022/04/06 05:44:20;;;;;;;61.25;43.60;;;256.80;1996.80;;;;;;4825718;29;20380;-68
2022/04/06 05:46:46;;;;;;;56.30;43.53;;;256.70;2022.40;;;;;;4825604;29;20904;-69
2022/04/06 05:49:12;;;;;;;52.80;42.25;;;256.80;2022.40;;;;;;4825761;29;20412;-71
2022/04/06 05:51:38;;;;;;;56.75;43.58;;;256.90;1996.80;;;;;;4828046;29;20454;-69
2022/04/06 05:54:04;;;;;;;57.03;42.95;;;281.70;1996.80;;;;;;4834022;29;20392;-71
2022/04/06 05:56:31;;;;;;;59.50;42.03;;;281.80;1971.20;;;;;;4834756;29;20399;-77
2022/04/06 05:58:58;;;;;;;;;;;281.80;1971.20;;;;;;4818577;29;20266;-76
2022/04/06 06:01:24;;;;;;;;;;;281.90;1971.20;;;;;;4820117;29;19912;-70
2022/04/06 06:03:50;;;;;;;;;;;282.00;2022.40;;;;;;4835300;29;19909;-69
2022/04/06 06:06:16;;;;;;;;;;;281.80;1996.80;;;;;;4835225;29;19908;-69
2022/04/06 06:08:41;;;;;;;;;;;281.90;2022.40;;;;;;4836466;29;20385;-70
2022/04/06 06:11:08;;;;;;;;;;;282.00;1996.80;;;;;;4834715;29;19908;-77
2022/04/06 06:13:33;;;;;;;;;;;282.00;1996.80;;;;;;4835374;29;19908;-74
2022/04/06 06:16:02;;;;;;;;;;;282.10;1996.80;;;;;;4836237;29;19916;-76
2022/04/06 06:18:28;;;;;;;;;;;282.10;2022.40;;;;;;4834679;29;19951;-73
2022/04/06 06:20:56;;;;;;;;;;;282.30;1971.20;;;;;;4835196;29;20351;-71
2022/04/06 06:23:21;;;;;;;;;;;282.40;1971.20;;;;;;4836190;29;20049;-73
2022/04/06 06:25:47;;;;;;;;;;;282.40;1945.60;;;;;;4834489;29;20003;-70
2022/04/06 06:28:12;;;;;;;;;;;307.20;1971.20;;;;;;4844796;29;19909;-70
2022/04/06 06:30:38;;;;;;;;;;;307.20;1971.20;;;;;;4844607;29;20010;-75
2022/04/06 06:33:04;;;;;;;;;;;307.30;1945.60;;;;;;4844579;29;19908;-74
2022/04/06 06:35:30;;;;;;;;;;;307.70;1945.60;;;;;;4844545;29;19958;-69
2022/04/06 06:37:56;;;;;;;;;;;307.60;1920.00;;;;;;4840560;29;19996;-70
2022/04/06 06:40:23;;;;;;;;;;;307.60;1920.00;;;;;;4834803;29;20362;-71
2022/04/06 06:42:48;;;;;;;;;;;307.70;1945.60;;;;;;4834015;29;19908;-71
2022/04/06 06:45:14;;;;;;;;;;;307.80;1945.60;;;;;;4835707;29;19958;-75
2022/04/06 06:47:41;;;;;;;;;;;308.00;1894.40;;;;;;4834596;29;20349;-76
2022/04/06 06:50:07;;;;;;;;;;;308.10;1894.40;;;;;;4828294;29;19953;-71
2022/04/06 06:52:34;;;;;;;;;;;332.80;1894.40;;;;;;4838051;29;19912;-73
2022/04/06 06:55:03;;;;;;;;;;;333.00;1894.40;;;;;;4844225;29;19908;-73
2022/04/06 06:57:29;;;;;;;;;;;333.00;1920.00;;;;;;4844086;29;20358;-77
2022/04/06 06:59:55;;;;;;;;;;;333.20;1920.00;;;;;;4843994;29;19966;-77
2022/04/06 07:02:21;;;;;;;;;;;333.40;1868.80;;;;;;4844028;29;20011;-76
2022/04/06 07:04:47;;;;;;;;;;;333.70;1792.00;;;;;;4841038;29;19912;-75
2022/04/06 07:07:12;;;;;;;;;;;358.40;1740.80;;;;;;4844014;29;19908;-76
2022/04/06 07:09:38;;;;;;;;;;;358.40;1740.80;;;;;;4832780;29;20007;-76
2022/04/06 07:12:04;;;;;;;;;;;;;;;;;;4825937;29;19909;-76
2022/04/06 07:14:30;;;;;;;;;;;359.20;1715.20;;;;;;4825967;29;20347;-74
2022/04/06 07:16:56;;;;;;;;;;;384.00;1689.60;;;;;;4825761;29;19933;-75
2022/04/06 07:19:21;;;;;;;;;;;384.40;1664.00;;;;;;4825638;29;19913;-72
2022/04/06 07:21:47;;;;;;;;;;;384.70;1664.00;;;;;;4825934;29;19909;-75
2022/04/06 07:24:13;;;;;;;;;;;409.70;1536.00;;;;;;4824494;29;20385;-72
2022/04/06 07:26:38;;;;;;;;;;;409.90;1561.60;;;;;;4825613;29;19959;-77
2022/04/06 07:29:04;;;;;;;;;;;410.10;1843.20;;;;;;4825622;29;20342;-71
2022/04/06 07:31:30;;;;;;;;;;;410.30;1536.00;;;;;;4825516;29;20314;-75
2022/04/06 07:33:55;;;;;;;;;;;410.50;1459.20;;;;;;4825635;29;19909;-74
2022/04/06 07:36:21;;;;;;;;;;;435.30;1433.60;;;;;;4825487;29;19948;-76
2022/04/06 07:38:47;;;;;;;;;;;;;;;;;;4825519;29;19943;-76
2022/04/06 07:41:13;;;;;;;;;;;460.90;1433.60;;;;;;4825420;29;20061;-76
2022/04/06 07:43:38;;;;;;;;;;;460.90;1433.60;;;;;;4826007;29;19913;-76
2022/04/06 07:46:05;;;;;;;;;;;461.30;1356.80;;;;;;4825677;29;19916;-74
2022/04/06 07:48:31;;;;;;;;;;;461.20;1408.00;;;;;;4824640;29;19938;-76
2022/04/06 07:50:57;;;;;;;;;;;461.40;1408.00;;;;;;4825767;29;19917;-74
2022/04/06 07:53:22;;;;;;;;;;;461.60;1356.80;;;;;;4825360;29;19915;-76
2022/04/06 07:55:49;;;;;;;;;;;486.50;1382.40;;;;;;4825239;29;20036;-76
2022/04/06 07:58:15;;;;;;;;;;;486.80;1382.40;;;;;;4827463;29;19963;-76
2022/04/06 08:00:41;;;;;;;;;;;487.20;1356.80;;;;;;4825016;29;19967;-74
2022/04/06 08:03:07;;;;;;;;;;;487.20;1305.60;;;;;;4825056;29;19974;-76
2022/04/06 08:05:33;;;;;;;;;;;512.40;1254.40;;;;;;4825082;29;19912;-71
2022/04/06 08:07:59;;;;;;;;;;;537.70;1254.40;;;;;;4825072;29;19957;-75
2022/04/06 08:10:24;;;;;;;;;;;538.40;1177.60;;;;;;4825060;29;19908;-76
2022/04/06 08:12:50;;;;;;;;;;;563.70;1203.20;;;;;;4824096;29;19956;-77
2022/04/06 08:15:16;;;;;;;;;;;589.30;1254.40;;;;;;4835074;29;19969;-71
2022/04/06 08:17:43;;;;;;;;;;;589.50;1100.80;;;;;;4831287;29;19909;-70
2022/04/06 08:20:09;;;;;;;;;;;614.60;1024.00;;;;;;4833730;29;19923;-77
2022/04/06 08:22:34;;;;;;;;;;;614.90;998.40;;;;;;4834326;29;19916;-70
2022/04/06 08:25:00;;;;;;;;;;;640.10;972.80;;;;;;4834373;29;20377;-71
2022/04/06 08:27:27;;;;;;;;;;;640.40;972.80;;;;;;4833350;29;20271;-71
2022/04/06 08:29:56;;;;;;;;;;;640.80;972.80;;;;;;4832712;29;19915;-69
2022/04/06 08:32:23;;;;;;;11.95;5.13;;;665.90;921.60;;;;;;4834346;29;19977;-76
2022/04/06 08:34:58;;;;;;;8.52;5.82;;;666.50;921.60;;;;;;4823443;29;20392;-76
2022/04/06 08:37:24;;;;;;;15.00;6.40;;;691.80;870.40;;;;;;4823993;29;20023;-75
2022/04/06 08:39:51;;;;;;;8.75;5.32;;;717.10;844.80;;;;;;4824569;29;20034;-71
2022/04/06 08:42:17;;;;;;;9.20;4.80;;;717.30;819.20;;;;;;4808098;29;20365;-72
2022/04/06 08:44:45;;;;;;;10.57;5.10;;;717.20;793.60;;;;;;4824629;29;20034;-71
2022/04/06 08:47:11;;;;;;;7.45;4.10;;;717.60;793.60;;;;;;4826414;29;20492;-71
2022/04/06 08:49:40;;;;;;;9.63;5.63;;;742.80;819.20;;;;;;4831520;29;20054;-70
2022/04/06 08:52:09;;;;;;;5.03;3.80;;;743.00;793.60;;;;;;4831466;29;20439;-76
2022/04/06 08:54:35;;;;;;;4.97;4.10;;;742.70;819.20;;;;;;4833652;29;20022;-71
2022/04/06 08:57:02;;;;;;;5.10;4.20;;;743.10;793.60;;;;;;4832117;29;20038;-70
2022/04/06 08:59:28;;;;;;;7.70;4.05;;;768.20;742.40;;;;;;4832305;29;20487;-69
2022/04/06 09:01:55;;;;;;;4.85;3.22;;;794.00;819.20;;;;;;4835524;29;20030;-71
2022/04/06 09:04:23;;;;;;;4.93;2.97;;;794.00;793.60;;;;;;4835289;29;20391;-71
2022/04/06 09:06:50;;;;;;;5.65;3.70;;;794.00;768.00;;;;;;4842763;29;20097;-70
2022/04/06 09:09:24;;;;;;;;;;;819.70;768.00;;;;;;4840516;29;20038;-74
2022/04/06 09:11:50;;;;;;;5.70;4.28;;;820.00;742.40;;;;;;4842489;29;20366;-70
2022/04/06 09:14:28;;;;;;;6.50;3.65;;;844.90;742.40;;;;;;4834906;29;20034;-70
2022/04/06 09:17:02;;;;;;;4.93;3.15;;;845.30;742.40;;;;;;4842214;29;20026;-70
2022/04/06 09:19:28;;;;;;;6.10;3.33;;;845.30;742.40;;;;;;4832304;29;20059;-69
2022/04/06 09:21:55;;;;;;;3.92;3.03;;;819.60;691.20;;;;;;4837732;29;20034;-72
2022/04/06 09:24:24;;;;;;;5.65;3.15;;;819.50;819.20;;;;;;4837728;29;20112;-70
2022/04/06 09:27:00;;;;;;;5.57;3.28;;;819.40;793.60;;;;;;4830805;29;20026;-70
2022/04/06 09:29:26;;;;;;;7.00;3.67;;;794.10;793.60;;;;;;4831142;29;20061;-72
2022/04/06 09:31:52;;;;;;;;;;;;;;;;;;4838581;29;20066;-72
2022/04/06 09:34:24;;;;;;;;;;;742.70;768.00;;;;;;4837774;29;19908;-70
2022/04/06 09:36:59;;;;;;;;;;;717.40;793.60;;;;;;4830883;29;19964;-70
2022/04/06 09:39:48;;;;;;;;;;;717.40;768.00;;;;;;4841523;29;19909;-75
2022/04/06 09:42:21;;;;;;;;;;;717.20;793.60;;;;;;4833009;29;19916;-72
2022/04/06 09:47:44;;;;;;;;;;;692.10;768.00;;;;;;4845356;29;19919;-70
2022/04/06 09:50:14;;;;;;;;;;;666.30;819.20;;;;;;4838511;29;19920;-71
2022/04/06 09:52:41;;;;;;;;;;;665.70;819.20;;;;;;4836424;29;20384;-70
2022/04/06 09:55:07;;;;;;;;;;;665.70;819.20;;;;;;4835969;29;19908;-73
2022/04/06 09:57:38;;;;;;;;;;;665.80;793.60;;;;;;4834571;29;19909;-78
2022/04/06 10:00:04;;;;;;;;;;;666.40;819.20;;;;;;4835421;29;19974;-70
2022/04/06 10:02:30;;;;;;;;;;;666.10;793.60;;;;;;4836228;29;20371;-72
2022/04/06 10:04:57;;;;;;;;;;;665.80;793.60;;;;;;4834480;29;19944;-78
2022/04/06 10:07:23;;;;;;;;;;;666.20;768.00;;;;;;4835689;29;20309;-75
2022/04/06 10:09:50;;;;;;;;;;;665.70;819.20;;;;;;4831463;29;19908;-77
2022/04/06 10:12:17;;;;;;;;;;;666.40;793.60;;;;;;4826403;29;20342;-69
2022/04/06 10:14:43;;;;;;;;;;;691.40;844.80;;;;;;4840436;29;19916;-69
2022/04/06 10:17:09;;;;;;;;;;;691.20;768.00;;;;;;4844833;29;19913;-71
2022/04/06 10:19:39;;;;;;;;;;;666.50;819.20;;;;;;4844979;29;19916;-76
2022/04/06 10:22:25;;;;;;;;;;;666.10;793.60;;;;;;4844669;29;20003;-75
2022/04/06 10:25:06;;;;;;;;;;;691.30;819.20;;;;;;4844493;29;19915;-75
2022/04/06 10:27:34;;;;;;;;;;;691.50;819.20;;;;;;4836090;29;19960;-76
2022/04/06 10:30:11;;;;;;;;;;;691.30;793.60;;;;;;4837882;29;19961;-69
2022/04/06 10:32:41;;;;;;;;;;;665.80;768.00;;;;;;4828637;29;19909;-75
2022/04/06 10:35:17;;;;;;;;;;;665.70;819.20;;;;;;4839136;29;19913;-78
2022/04/06 10:37:56;;;;;;;;;;;640.70;793.60;;;;;;4844582;29;19913;-71
2022/04/06 10:40:25;;;;;;;;;;;640.80;768.00;;;;;;4845106;29;20273;-68
2022/04/06 10:42:51;;;;;;;;;;;665.70;870.40;;;;;;4842897;29;19912;-77
2022/04/06 10:45:29;;;;;;;;;;;640.70;793.60;;;;;;4835436;29;19912;-78
2022/04/06 10:48:16;;;;;;;;;;;640.70;793.60;;;;;;4834842;29;19909;-70
2022/04/06 10:50:43;;;;;;;;;;;640.70;793.60;;;;;;4835463;29;19929;-73
2022/04/06 10:53:18;;;;;;;;;;;665.70;844.80;;;;;;4833938;29;20007;-71
2022/04/06 10:55:57;;;;;;;;;;;666.20;844.80;;;;;;4833564;29;19909;-77
2022/04/06 10:58:26;;;;;;;;;;;666.10;768.00;;;;;;4833566;29;20359;-77
2022/04/06 11:01:10;;;;;;;;;;;666.10;793.60;;;;;;4834776;29;19971;-69
2022/04/06 11:03:40;;;;;;;;;;;665.70;819.20;;;;;;4834769;29;20004;-71
2022/04/06 11:06:05;;;;;;;;;;;666.00;844.80;;;;;;4833509;29;19958;-76
2022/04/06 11:11:38;;;;;;;;;;;666.00;819.20;;;;;;4835184;29;20368;-70
2022/04/06 11:14:04;;;;;;;;;;;640.90;768.00;;;;;;4833372;29;20350;-77
2022/04/06 11:16:43;;;;;;;;;;;640.50;768.00;;;;;;4834914;29;19912;-70
2022/04/06 11:19:08;;;;;;;;;;;640.50;793.60;;;;;;4835071;29;20284;-75
2022/04/06 11:21:34;;;;;;;;;;;640.70;768.00;;;;;;4834194;29;20406;-70
2022/04/06 11:24:00;;;;;;;;;;;665.60;793.60;;;;;;4835013;29;19920;-77
2022/04/06 11:26:26;;;;;;;;;;;665.60;768.00;;;;;;4843542;29;19965;-71
2022/04/06 11:28:58;;;;;;;;;;;665.80;793.60;;;;;;4827325;29;19985;-70
2022/04/06 11:31:24;;;;;;;;;;;640.90;793.60;;;;;;4828320;29;19916;-69
2022/04/06 11:33:50;;;;;;;;;;;640.80;793.60;;;;;;4825428;29;19913;-70
2022/04/06 11:36:19;;;;;;;;;;;640.80;793.60;;;;;;4825362;29;19909;-70
2022/04/06 11:38:51;;;;;;;;;;;640.70;742.40;;;;;;4808905;29;19991;-70
2022/04/06 11:41:18;;;;;;;;;;;665.80;793.60;;;;;;4825323;29;19972;-70
2022/04/06 11:43:44;;;;;;;;;;;665.60;742.40;;;;;;4825206;29;20282;-71
2022/04/06 11:46:10;;;;;;;;;;;640.70;742.40;;;;;;4830029;29;19908;-69
2022/04/06 11:48:42;;;;;;;;;;;640.70;742.40;;;;;;4832242;29;19920;-70
2022/04/06 11:51:09;;;;;;;;;;;665.90;793.60;;;;;;4837438;29;19927;-70
2022/04/06 11:53:36;;;;;;;;;;;666.10;768.00;;;;;;4840465;29;20002;-69
2022/04/06 11:56:03;;;;;;;;;;;666.40;793.60;;;;;;4843208;29;19908;-69
2022/04/06 11:58:36;;;;;;;;;;;666.30;768.00;;;;;;4843304;29;19965;-69
2022/04/06 12:01:03;;;;;;;;;;;666.30;793.60;;;;;;4843259;29;19923;-69
2022/04/06 12:03:32;;;;;;;;;;;666.40;768.00;;;;;;4843509;29;19965;-70
2022/04/06 12:05:59;;;;;;;;;;;666.50;742.40;;;;;;4843178;29;19916;-70
2022/04/06 12:08:24;;;;;;;;;;;691.40;742.40;;;;;;4843044;29;19909;-69
2022/04/06 12:10:56;;;;;;;;;;;691.40;768.00;;;;;;4843164;29;19915;-72
2022/04/06 12:13:22;;;;;;;;;;;666.30;768.00;;;;;;4843060;29;19912;-71
2022/04/06 12:15:48;;;;;;;;;;;666.00;768.00;;;;;;4843092;29;19999;-71
2022/04/06 12:18:18;;;;;;;;;;;666.40;768.00;;;;;;4842931;29;19964;-70
2022/04/06 12:20:43;;;;;;;;;;;691.20;768.00;;;;;;4842977;29;19916;-72
2022/04/06 12:23:09;;;;;;;;;;;666.50;742.40;;;;;;4842983;29;19909;-71
2022/04/06 12:25:36;;;;;;;;;;;666.40;768.00;;;;;;4843297;29;20334;-72
2022/04/06 12:28:11;;;;;;;;;;;666.40;742.40;;;;;;4832328;29;20284;-71
2022/04/06 12:30:50;;;;;;;;;;;666.50;742.40;;;;;;4832827;29;20336;-70
2022/04/06 12:33:35;;;;;;;;;;;691.50;768.00;;;;;;4834291;29;19909;-70
2022/04/06 12:36:05;;;;;;;;;;;666.40;768.00;;;;;;4836793;29;20273;-73
2022/04/06 12:38:30;;;;;;;;;;;691.20;742.40;;;;;;4820476;29;20329;-77
2022/04/06 12:41:23;;;;;;;;;;;666.50;768.00;;;;;;4836354;29;19942;-70
2022/04/06 12:43:49;;;;;;;;;;;691.20;768.00;;;;;;4834688;29;19908;-77
2022/04/06 12:46:34;;;;;;;;;;;691.60;768.00;;;;;;4837379;29;19944;-73
2022/04/06 12:49:18;;;;;;;;;;;692.10;716.80;;;;;;4837635;29;19935;-75
2022/04/06 12:51:44;;;;;;;;;;;691.50;742.40;;;;;;4836521;29;19915;-70
2022/04/06 12:54:10;;;;;;;;;;;717.00;768.00;;;;;;4836528;29;19908;-70
2022/04/06 12:56:35;;;;;;;;;;;716.80;742.40;;;;;;4836283;29;19952;-70
2022/04/06 12:59:11;;;;;;;;;;;716.80;793.60;;;;;;4837532;29;19912;-70
2022/04/06 13:01:44;;;;;;;;;;;717.30;768.00;;;;;;4837134;29;19917;-70
2022/04/06 13:04:10;;;;;;;;;;;717.60;716.80;;;;;;4836200;29;19915;-70
2022/04/06 13:06:35;;;;;;;;;;;717.50;742.40;;;;;;4836053;29;19991;-72
2022/04/06 13:09:01;;;;;;;;;;;742.40;768.00;;;;;;4837435;29;19913;-70
2022/04/06 13:11:26;;;;;;;;;;;717.60;742.40;;;;;;4835849;29;19909;-73
2022/04/06 13:13:52;;;;;;;;;;;717.00;742.40;;;;;;4820037;29;20391;-76
2022/04/06 13:16:19;;;;;;;;;;;717.30;793.60;;;;;;4838646;29;19912;-71
2022/04/06 13:18:45;;;;;;;;;;;717.30;716.80;;;;;;4836458;29;19991;-76
2022/04/06 13:21:11;;;;;;;;;;;717.30;742.40;;;;;;4835404;29;20056;-70
2022/04/06 13:23:37;;;;;;;;;;;717.00;742.40;;;;;;4837119;29;19908;-74
2022/04/06 13:26:03;;;;;;;;;;;717.70;716.80;;;;;;4836049;29;19957;-72
2022/04/06 13:28:29;;;;;;;;;;;717.50;716.80;;;;;;4846333;29;20013;-70
2022/04/06 13:30:57;;;;;;;;;;;717.50;768.00;;;;;;4845802;29;20300;-70
2022/04/06 13:33:23;;;;;;;;;;;716.80;742.40;;;;;;4845651;29;20369;-70
2022/04/06 13:35:50;;;;;;;;;;;742.80;716.80;;;;;;4845629;29;19920;-69
2022/04/06 13:38:16;;;;;;;;;;;845.50;716.80;;;;;;4845631;29;20327;-69
2022/04/06 13:40:42;;;;;;;8.38;3.70;;;973.30;563.20;;;;;;4845020;29;19920;-70
2022/04/06 13:43:08;;;;;;;;;;;;;;;;;;4845791;29;20093;-71
2022/04/06 13:45:34;;;;;;;;;;;;;;;;;;4846463;29;19957;-70
2022/04/06 13:47:59;;;;;;;;;;;1203.30;435.20;;;;;;4844706;29;19919;-70
2022/04/06 13:50:25;;;;;;;;;;;1152.10;435.20;;;;;;4845187;29;19921;-78
2022/04/06 13:52:51;;;;;;;;;;;1152.10;435.20;;;;;;4845433;29;20338;-71
2022/04/06 13:55:21;;;;;;;;;;;1152.30;409.60;;;;;;4845247;29;20023;-78
2022/04/06 13:57:50;;;;;;;;;;;1177.80;409.60;;;;;;4845245;29;19908;-71
2022/04/06 14:00:17;;;;;;;;;;;;;;;;;;4845118;29;19917;-77